sensor_id;sensor_type;location;lat;lon;timestamp;pressure;altitude;pressure_sealevel;temperature;humidity
36192;BME280;22233;42.708;23.360;2023-04-12T00:02:22;94525.41;;;9.58;67.27
36192;BME280;22233;42.708;23.360;2023-04-12T00:04:47;94525.75;;;9.56;66.92
36192;BME280;22233;42.708;23.360;2023-04-12T00:07:23;94519.38;;;9.82;66.05
36192;BME280;22233;42.708;23.360;2023-04-12T00:09:49;94506.13;;;10.02;64.98
36192;BME280;22233;42.708;23.360;2023-04-12T00:12:16;94510.34;;;9.69;66.47
36192;BME280;22233;42.708;23.360;2023-04-12T00:14:43;94507.69;;;9.82;66.58
36192;BME280;22233;42.708;23.360;2023-04-12T00:17:09;94512.09;;;9.74;66.91
36192;BME280;22233;42.708;23.360;2023-04-12T00:19:35;94503.16;;;9.94;65.42
36192;BME280;22233;42.708;23.360;2023-04-12T00:22:09;94517.22;;;9.67;66.40
36192;BME280;22233;42.708;23.360;2023-04-12T00:24:35;94488.66;;;9.90;65.20
36192;BME280;22233;42.708;23.360;2023-04-12T00:27:01;94499.16;;;9.92;65.49
36192;BME280;22233;42.708;23.360;2023-04-12T00:29:27;94493.81;;;9.83;66.16
36192;BME280;22233;42.708;23.360;2023-04-12T00:31:52;94493.28;;;9.90;65.65
36192;BME280;22233;42.708;23.360;2023-04-12T00:34:18;94487.84;;;10.11;65.10
36192;BME280;22233;42.708;23.360;2023-04-12T00:36:44;94500.38;;;10.03;66.09
36192;BME280;22233;42.708;23.360;2023-04-12T00:39:09;94469.06;;;9.85;65.01
36192;BME280;22233;42.708;23.360;2023-04-12T00:41:37;94498.19;;;9.96;65.48
36192;BME280;22233;42.708;23.360;2023-04-12T00:44:03;94488.53;;;9.87;65.81
36192;BME280;22233;42.708;23.360;2023-04-12T00:46:29;94502.53;;;10.10;65.55
36192;BME280;22233;42.708;23.360;2023-04-12T00:48:56;94496.59;;;10.16;64.43
36192;BME280;22233;42.708;23.360;2023-04-12T00:51:22;94495.41;;;10.05;66.16
36192;BME280;22233;42.708;23.360;2023-04-12T00:53:52;94494.81;;;9.78;67.34
36192;BME280;22233;42.708;23.360;2023-04-12T00:56:21;94482.50;;;10.02;65.73
36192;BME280;22233;42.708;23.360;2023-04-12T00:58:48;94482.56;;;9.93;65.83
36192;BME280;22233;42.708;23.360;2023-04-12T01:01:14;94475.50;;;9.80;66.10
36192;BME280;22233;42.708;23.360;2023-04-12T01:03:41;94472.50;;;9.94;65.52
36192;BME280;22233;42.708;23.360;2023-04-12T01:06:36;94487.25;;;10.05;65.58
36192;BME280;22233;42.708;23.360;2023-04-12T01:12:30;94475.69;;;9.96;66.36
36192;BME280;22233;42.708;23.360;2023-04-12T01:15:09;94482.84;;;10.00;65.92
36192;BME280;22233;42.708;23.360;2023-04-12T01:18:03;94478.22;;;9.80;66.08
36192;BME280;22233;42.708;23.360;2023-04-12T01:20:34;94482.50;;;9.81;67.03
36192;BME280;22233;42.708;23.360;2023-04-12T01:29:00;94479.78;;;9.81;67.15
36192;BME280;22233;42.708;23.360;2023-04-12T01:31:28;94474.81;;;9.83;66.37
36192;BME280;22233;42.708;23.360;2023-04-12T01:33:56;94473.97;;;9.70;67.14
36192;BME280;22233;42.708;23.360;2023-04-12T01:36:22;94465.22;;;9.65;66.91
36192;BME280;22233;42.708;23.360;2023-04-12T01:38:50;94475.03;;;9.78;66.33
36192;BME280;22233;42.708;23.360;2023-04-12T01:41:16;94466.69;;;9.62;67.78
36192;BME280;22233;42.708;23.360;2023-04-12T01:43:43;94468.09;;;9.68;66.66
36192;BME280;22233;42.708;23.360;2023-04-12T01:46:18;94450.00;;;9.51;67.09
36192;BME280;22233;42.708;23.360;2023-04-12T01:48:48;94460.47;;;9.62;67.83
36192;BME280;22233;42.708;23.360;2023-04-12T01:53:53;94471.91;;;9.46;67.71
36192;BME280;22233;42.708;23.360;2023-04-12T01:56:21;94463.84;;;9.58;68.27
36192;BME280;22233;42.708;23.360;2023-04-12T01:58:49;94449.47;;;9.37;68.29
36192;BME280;22233;42.708;23.360;2023-04-12T02:01:17;94459.06;;;9.55;68.58
36192;BME280;22233;42.708;23.360;2023-04-12T02:03:44;94454.38;;;9.65;68.20
36192;BME280;22233;42.708;23.360;2023-04-12T02:06:11;94471.28;;;9.40;68.54
36192;BME280;22233;42.708;23.360;2023-04-12T02:08:36;94454.81;;;9.25;69.29
36192;BME280;22233;42.708;23.360;2023-04-12T02:11:09;94430.31;;;9.42;68.28
36192;BME280;22233;42.708;23.360;2023-04-12T02:13:34;94449.59;;;9.40;68.41
36192;BME280;22233;42.708;23.360;2023-04-12T02:16:00;94444.59;;;9.51;69.11
36192;BME280;22233;42.708;23.360;2023-04-12T02:18:26;94453.56;;;9.43;68.86
36192;BME280;22233;42.708;23.360;2023-04-12T02:20:52;94432.41;;;9.36;68.60
36192;BME280;22233;42.708;23.360;2023-04-12T02:23:17;94431.91;;;9.13;69.01
36192;BME280;22233;42.708;23.360;2023-04-12T02:25:42;94469.66;;;9.48;68.71
36192;BME280;22233;42.708;23.360;2023-04-12T02:28:10;94461.53;;;9.48;68.35
36192;BME280;22233;42.708;23.360;2023-04-12T02:30:35;94457.66;;;9.49;68.17
36192;BME280;22233;42.708;23.360;2023-04-12T02:33:02;94454.25;;;9.40;68.67
36192;BME280;22233;42.708;23.360;2023-04-12T02:35:30;94452.94;;;9.46;68.16
36192;BME280;22233;42.708;23.360;2023-04-12T02:37:55;94469.19;;;9.46;69.37
36192;BME280;22233;42.708;23.360;2023-04-12T02:40:22;94453.69;;;9.26;69.06
36192;BME280;22233;42.708;23.360;2023-04-12T02:42:47;94445.50;;;9.34;69.22
36192;BME280;22233;42.708;23.360;2023-04-12T02:45:13;94442.53;;;9.48;69.65
36192;BME280;22233;42.708;23.360;2023-04-12T02:47:38;94445.75;;;9.42;69.08
36192;BME280;22233;42.708;23.360;2023-04-12T02:50:05;94443.84;;;9.42;68.39
36192;BME280;22233;42.708;23.360;2023-04-12T02:52:31;94454.09;;;9.36;69.00
36192;BME280;22233;42.708;23.360;2023-04-12T02:54:58;94447.44;;;9.55;68.23
36192;BME280;22233;42.708;23.360;2023-04-12T02:57:23;94446.81;;;9.28;68.97
36192;BME280;22233;42.708;23.360;2023-04-12T02:59:52;94450.00;;;9.30;69.40
36192;BME280;22233;42.708;23.360;2023-04-12T03:02:21;94452.00;;;9.12;69.76
36192;BME280;22233;42.708;23.360;2023-04-12T03:04:47;94449.28;;;9.12;71.01
36192;BME280;22233;42.708;23.360;2023-04-12T03:07:18;94458.66;;;9.24;70.04
36192;BME280;22233;42.708;23.360;2023-04-12T03:09:48;94437.28;;;9.22;69.90
36192;BME280;22233;42.708;23.360;2023-04-12T03:12:14;94458.59;;;9.32;70.79
36192;BME280;22233;42.708;23.360;2023-04-12T03:14:40;94444.72;;;9.04;71.75
36192;BME280;22233;42.708;23.360;2023-04-12T03:17:06;94451.09;;;9.29;71.63
36192;BME280;22233;42.708;23.360;2023-04-12T03:19:31;94458.19;;;9.22;72.71
36192;BME280;22233;42.708;23.360;2023-04-12T03:21:57;94466.25;;;9.30;72.20
36192;BME280;22233;42.708;23.360;2023-04-12T03:24:23;94457.03;;;9.23;72.77
36192;BME280;22233;42.708;23.360;2023-04-12T03:26:49;94449.13;;;9.09;73.02
36192;BME280;22233;42.708;23.360;2023-04-12T03:29:15;94453.63;;;9.34;72.55
36192;BME280;22233;42.708;23.360;2023-04-12T03:31:40;94452.38;;;9.32;72.08
36192;BME280;22233;42.708;23.360;2023-04-12T03:34:05;94454.94;;;9.28;71.82
36192;BME280;22233;42.708;23.360;2023-04-12T03:36:32;94461.47;;;9.27;72.31
36192;BME280;22233;42.708;23.360;2023-04-12T03:38:57;94469.69;;;9.39;72.15
36192;BME280;22233;42.708;23.360;2023-04-12T03:41:23;94452.59;;;9.48;71.29
36192;BME280;22233;42.708;23.360;2023-04-12T03:43:49;94472.66;;;9.26;72.19
36192;BME280;22233;42.708;23.360;2023-04-12T03:46:15;94464.22;;;9.48;71.05
36192;BME280;22233;42.708;23.360;2023-04-12T03:48:41;94459.66;;;9.40;71.63
36192;BME280;22233;42.708;23.360;2023-04-12T03:51:07;94459.28;;;9.50;70.33
36192;BME280;22233;42.708;23.360;2023-04-12T03:53:38;94466.03;;;9.35;70.82
36192;BME280;22233;42.708;23.360;2023-04-12T03:56:04;94464.66;;;9.29;70.92
36192;BME280;22233;42.708;23.360;2023-04-12T03:58:30;94479.41;;;9.40;70.84
36192;BME280;22233;42.708;23.360;2023-04-12T04:01:01;94473.53;;;9.38;70.63
36192;BME280;22233;42.708;23.360;2023-04-12T04:03:31;94476.84;;;9.44;70.58
36192;BME280;22233;42.708;23.360;2023-04-12T04:05:59;94466.16;;;9.48;70.55
36192;BME280;22233;42.708;23.360;2023-04-12T04:08:25;94461.31;;;9.53;69.72
36192;BME280;22233;42.708;23.360;2023-04-12T04:10:50;94473.94;;;9.49;69.38
36192;BME280;22233;42.708;23.360;2023-04-12T04:13:16;94467.66;;;9.57;69.56
36192;BME280;22233;42.708;23.360;2023-04-12T04:15:41;94484.22;;;9.35;70.64
36192;BME280;22233;42.708;23.360;2023-04-12T04:18:06;94475.00;;;9.36;70.23
36192;BME280;22233;42.708;23.360;2023-04-12T04:20:32;94484.38;;;9.38;69.89
36192;BME280;22233;42.708;23.360;2023-04-12T04:22:57;94508.22;;;9.15;70.59
36192;BME280;22233;42.708;23.360;2023-04-12T04:25:23;94500.28;;;9.10;71.67
36192;BME280;22233;42.708;23.360;2023-04-12T04:27:54;94489.50;;;9.31;70.52
36192;BME280;22233;42.708;23.360;2023-04-12T04:30:20;94502.78;;;9.24;70.12
36192;BME280;22233;42.708;23.360;2023-04-12T04:32:47;94513.97;;;9.52;69.79
36192;BME280;22233;42.708;23.360;2023-04-12T04:35:14;94512.34;;;9.51;69.00
36192;BME280;22233;42.708;23.360;2023-04-12T04:37:42;94522.41;;;9.51;69.80
36192;BME280;22233;42.708;23.360;2023-04-12T04:40:08;94504.03;;;9.27;69.66
36192;BME280;22233;42.708;23.360;2023-04-12T04:42:35;94518.34;;;9.36;69.70
36192;BME280;22233;42.708;23.360;2023-04-12T04:45:02;94517.19;;;9.46;69.13
36192;BME280;22233;42.708;23.360;2023-04-12T04:47:36;94519.09;;;9.45;69.48
36192;BME280;22233;42.708;23.360;2023-04-12T04:50:02;94527.69;;;9.47;69.53
36192;BME280;22233;42.708;23.360;2023-04-12T04:52:27;94541.09;;;9.44;68.93
36192;BME280;22233;42.708;23.360;2023-04-12T04:54:53;94541.63;;;9.37;68.84
36192;BME280;22233;42.708;23.360;2023-04-12T04:57:24;94528.16;;;9.49;69.14
36192;BME280;22233;42.708;23.360;2023-04-12T04:59:51;94552.25;;;9.12;69.49
36192;BME280;22233;42.708;23.360;2023-04-12T05:02:16;94537.06;;;9.20;69.49
36192;BME280;22233;42.708;23.360;2023-04-12T05:04:42;94535.78;;;9.26;68.42
36192;BME280;22233;42.708;23.360;2023-04-12T05:07:07;94539.19;;;9.44;68.59
36192;BME280;22233;42.708;23.360;2023-04-12T05:09:32;94533.53;;;9.28;67.86
36192;BME280;22233;42.708;23.360;2023-04-12T05:11:58;94548.97;;;9.36;67.35
36192;BME280;22233;42.708;23.360;2023-04-12T05:14:23;94562.16;;;9.47;66.93
36192;BME280;22233;42.708;23.360;2023-04-12T05:16:49;94552.53;;;9.58;67.10
36192;BME280;22233;42.708;23.360;2023-04-12T05:19:14;94553.44;;;9.32;67.10
36192;BME280;22233;42.708;23.360;2023-04-12T05:21:39;94547.56;;;9.30;67.09
36192;BME280;22233;42.708;23.360;2023-04-12T05:24:05;94559.75;;;9.45;67.05
36192;BME280;22233;42.708;23.360;2023-04-12T05:26:31;94550.03;;;9.44;66.70
36192;BME280;22233;42.708;23.360;2023-04-12T05:28:58;94554.91;;;9.30;66.98
36192;BME280;22233;42.708;23.360;2023-04-12T05:31:25;94553.22;;;9.46;66.18
36192;BME280;22233;42.708;23.360;2023-04-12T05:33:52;94551.06;;;9.60;66.06
36192;BME280;22233;42.708;23.360;2023-04-12T05:36:18;94548.28;;;9.39;66.89
36192;BME280;22233;42.708;23.360;2023-04-12T05:38:44;94544.41;;;9.49;65.44
36192;BME280;22233;42.708;23.360;2023-04-12T05:41:09;94538.81;;;9.54;64.90
36192;BME280;22233;42.708;23.360;2023-04-12T05:43:35;94560.28;;;9.68;64.85
36192;BME280;22233;42.708;23.360;2023-04-12T05:46:02;94552.22;;;9.51;65.42
36192;BME280;22233;42.708;23.360;2023-04-12T05:48:27;94564.09;;;9.67;64.48
36192;BME280;22233;42.708;23.360;2023-04-12T05:50:53;94560.53;;;9.75;63.73
36192;BME280;22233;42.708;23.360;2023-04-12T05:53:20;94571.59;;;9.70;64.60
36192;BME280;22233;42.708;23.360;2023-04-12T05:55:45;94576.25;;;9.61;63.19
36192;BME280;22233;42.708;23.360;2023-04-12T05:58:11;94579.41;;;9.72;62.92
36192;BME280;22233;42.708;23.360;2023-04-12T06:00:38;94560.19;;;9.56;63.54
36192;BME280;22233;42.708;23.360;2023-04-12T06:03:04;94557.34;;;9.82;62.29
36192;BME280;22233;42.708;23.360;2023-04-12T06:05:29;94557.88;;;9.37;62.60
36192;BME280;22233;42.708;23.360;2023-04-12T06:07:55;94588.63;;;9.50;62.52
36192;BME280;22233;42.708;23.360;2023-04-12T06:10:20;94591.44;;;9.62;62.40
36192;BME280;22233;42.708;23.360;2023-04-12T06:12:46;94588.25;;;9.51;62.28
36192;BME280;22233;42.708;23.360;2023-04-12T06:15:12;94580.88;;;9.31;63.31
36192;BME280;22233;42.708;23.360;2023-04-12T06:17:37;94573.03;;;9.38;62.92
36192;BME280;22233;42.708;23.360;2023-04-12T06:20:03;94584.66;;;9.38;61.97
36192;BME280;22233;42.708;23.360;2023-04-12T06:22:33;94600.09;;;9.47;62.10
36192;BME280;22233;42.708;23.360;2023-04-12T06:24:59;94595.16;;;9.49;62.51
36192;BME280;22233;42.708;23.360;2023-04-12T06:27:24;94610.53;;;9.27;62.55
36192;BME280;22233;42.708;23.360;2023-04-12T06:29:51;94600.31;;;9.33;63.29
36192;BME280;22233;42.708;23.360;2023-04-12T06:32:16;94574.59;;;9.39;63.12
36192;BME280;22233;42.708;23.360;2023-04-12T06:34:42;94596.91;;;9.45;64.56
36192;BME280;22233;42.708;23.360;2023-04-12T06:37:07;94591.06;;;9.34;63.75
36192;BME280;22233;42.708;23.360;2023-04-12T06:39:33;94598.28;;;9.21;63.95
36192;BME280;22233;42.708;23.360;2023-04-12T06:41:58;94592.13;;;9.42;62.64
36192;BME280;22233;42.708;23.360;2023-04-12T06:44:23;94598.03;;;9.44;63.40
36192;BME280;22233;42.708;23.360;2023-04-12T06:46:51;94580.44;;;9.58;62.28
36192;BME280;22233;42.708;23.360;2023-04-12T06:49:16;94587.09;;;9.61;62.07
36192;BME280;22233;42.708;23.360;2023-04-12T06:51:42;94576.13;;;9.87;61.52
36192;BME280;22233;42.708;23.360;2023-04-12T06:54:08;94572.31;;;9.88;61.21
36192;BME280;22233;42.708;23.360;2023-04-12T06:56:36;94567.09;;;9.74;61.31
36192;BME280;22233;42.708;23.360;2023-04-12T06:59:01;94576.22;;;9.70;62.13
36192;BME280;22233;42.708;23.360;2023-04-12T07:01:27;94574.56;;;9.77;61.15
36192;BME280;22233;42.708;23.360;2023-04-12T07:03:52;94568.13;;;9.91;60.95
36192;BME280;22233;42.708;23.360;2023-04-12T07:06:18;94557.41;;;9.94;60.46
36192;BME280;22233;42.708;23.360;2023-04-12T07:08:43;94566.09;;;10.09;60.30
36192;BME280;22233;42.708;23.360;2023-04-12T07:11:08;94560.44;;;10.14;60.55
36192;BME280;22233;42.708;23.360;2023-04-12T07:13:34;94564.22;;;10.00;60.09
36192;BME280;22233;42.708;23.360;2023-04-12T07:16:00;94547.81;;;10.18;59.50
36192;BME280;22233;42.708;23.360;2023-04-12T07:18:25;94550.75;;;10.55;58.52
36192;BME280;22233;42.708;23.360;2023-04-12T07:20:53;94557.34;;;10.66;59.23
36192;BME280;22233;42.708;23.360;2023-04-12T07:23:19;94536.31;;;11.09;56.97
36192;BME280;22233;42.708;23.360;2023-04-12T07:25:44;94538.88;;;10.93;56.99
36192;BME280;22233;42.708;23.360;2023-04-12T07:28:10;94533.31;;;10.89;56.21
36192;BME280;22233;42.708;23.360;2023-04-12T07:30:38;94540.38;;;11.15;55.93
36192;BME280;22233;42.708;23.360;2023-04-12T07:33:05;94548.41;;;10.99;55.78
36192;BME280;22233;42.708;23.360;2023-04-12T07:35:31;94542.22;;;10.77;56.61
36192;BME280;22233;42.708;23.360;2023-04-12T07:37:57;94542.47;;;10.85;57.08
36192;BME280;22233;42.708;23.360;2023-04-12T07:40:23;94545.78;;;10.57;56.40
36192;BME280;22233;42.708;23.360;2023-04-12T07:42:48;94549.69;;;10.26;58.49
36192;BME280;22233;42.708;23.360;2023-04-12T07:45:14;94533.59;;;10.21;58.09
36192;BME280;22233;42.708;23.360;2023-04-12T07:47:40;94545.69;;;10.32;57.50
36192;BME280;22233;42.708;23.360;2023-04-12T07:50:06;94534.28;;;10.39;58.00
36192;BME280;22233;42.708;23.360;2023-04-12T07:52:31;94541.31;;;10.73;56.72
36192;BME280;22233;42.708;23.360;2023-04-12T07:54:57;94532.06;;;10.87;54.87
36192;BME280;22233;42.708;23.360;2023-04-12T07:57:22;94518.50;;;11.11;54.53
36192;BME280;22233;42.708;23.360;2023-04-12T07:59:48;94543.38;;;10.89;53.93
36192;BME280;22233;42.708;23.360;2023-04-12T08:02:14;94522.22;;;10.94;54.59
36192;BME280;22233;42.708;23.360;2023-04-12T08:04:48;94529.88;;;11.38;53.41
36192;BME280;22233;42.708;23.360;2023-04-12T08:07:14;94527.25;;;11.17;53.58
36192;BME280;22233;42.708;23.360;2023-04-12T08:09:40;94532.91;;;11.12;52.12
36192;BME280;22233;42.708;23.360;2023-04-12T08:12:06;94505.44;;;10.92;52.08
36192;BME280;22233;42.708;23.360;2023-04-12T08:14:31;94512.59;;;10.85;52.58
36192;BME280;22233;42.708;23.360;2023-04-12T08:16:56;94540.47;;;10.61;52.09
36192;BME280;22233;42.708;23.360;2023-04-12T08:19:23;94515.22;;;10.60;53.23
36192;BME280;22233;42.708;23.360;2023-04-12T08:21:49;94511.63;;;10.68;53.08
36192;BME280;22233;42.708;23.360;2023-04-12T08:24:14;94522.13;;;11.03;51.61
36192;BME280;22233;42.708;23.360;2023-04-12T08:26:40;94517.78;;;10.90;50.14
36192;BME280;22233;42.708;23.360;2023-04-12T08:29:06;94512.25;;;10.98;50.74
36192;BME280;22233;42.708;23.360;2023-04-12T08:31:32;94494.84;;;11.24;49.41
36192;BME280;22233;42.708;23.360;2023-04-12T08:33:57;94515.59;;;11.41;48.70
36192;BME280;22233;42.708;23.360;2023-04-12T08:36:24;94509.00;;;11.30;48.41
36192;BME280;22233;42.708;23.360;2023-04-12T08:38:51;94508.56;;;11.40;46.87
36192;BME280;22233;42.708;23.360;2023-04-12T08:41:20;94522.03;;;11.36;47.38
36192;BME280;22233;42.708;23.360;2023-04-12T08:43:46;94527.81;;;11.59;47.29
36192;BME280;22233;42.708;23.360;2023-04-12T08:46:15;94525.22;;;11.63;47.11
36192;BME280;22233;42.708;23.360;2023-04-12T08:48:45;94506.84;;;11.60;47.23
36192;BME280;22233;42.708;23.360;2023-04-12T08:51:16;94512.63;;;11.34;47.05
36192;BME280;22233;42.708;23.360;2023-04-12T08:53:41;94539.84;;;11.46;45.73
36192;BME280;22233;42.708;23.360;2023-04-12T08:56:10;94508.56;;;11.52;46.15
36192;BME280;22233;42.708;23.360;2023-04-12T08:58:54;94522.59;;;11.67;46.03
36192;BME280;22233;42.708;23.360;2023-04-12T09:01:21;94510.81;;;11.63;45.66
36192;BME280;22233;42.708;23.360;2023-04-12T09:03:46;94494.91;;;11.77;44.76
36192;BME280;22233;42.708;23.360;2023-04-12T09:06:12;94511.28;;;11.89;43.40
36192;BME280;22233;42.708;23.360;2023-04-12T09:08:51;94522.00;;;12.10;43.38
36192;BME280;22233;42.708;23.360;2023-04-12T09:11:22;94493.13;;;11.93;43.17
36192;BME280;22233;42.708;23.360;2023-04-12T09:13:48;94494.94;;;12.02;43.77
36192;BME280;22233;42.708;23.360;2023-04-12T09:16:14;94500.91;;;12.48;41.96
36192;BME280;22233;42.708;23.360;2023-04-12T09:18:49;94509.50;;;12.22;42.69
36192;BME280;22233;42.708;23.360;2023-04-12T09:21:15;94500.56;;;12.09;42.33
36192;BME280;22233;42.708;23.360;2023-04-12T09:23:41;94466.28;;;12.20;43.26
36192;BME280;22233;42.708;23.360;2023-04-12T09:26:06;94486.16;;;12.65;41.62
36192;BME280;22233;42.708;23.360;2023-04-12T09:28:33;94498.91;;;12.61;41.04
36192;BME280;22233;42.708;23.360;2023-04-12T09:30:59;94473.66;;;12.48;41.75
36192;BME280;22233;42.708;23.360;2023-04-12T09:36:05;94489.25;;;12.79;39.89
36192;BME280;22233;42.708;23.360;2023-04-12T09:38:31;94477.31;;;12.84;39.60
36192;BME280;22233;42.708;23.360;2023-04-12T09:41:17;94458.66;;;12.86;39.98
36192;BME280;22233;42.708;23.360;2023-04-12T09:43:43;94469.09;;;12.96;39.92
36192;BME280;22233;42.708;23.360;2023-04-12T09:46:11;94469.44;;;12.94;39.54
36192;BME280;22233;42.708;23.360;2023-04-12T09:48:48;94472.59;;;13.12;39.41
36192;BME280;22233;42.708;23.360;2023-04-12T09:51:29;94449.63;;;13.13;38.91
36192;BME280;22233;42.708;23.360;2023-04-12T09:54:02;94458.25;;;13.47;38.63
36192;BME280;22233;42.708;23.360;2023-04-12T09:56:35;94440.03;;;13.51;37.59
36192;BME280;22233;42.708;23.360;2023-04-12T09:59:04;94435.56;;;13.43;37.90
36192;BME280;22233;42.708;23.360;2023-04-12T10:01:35;94423.75;;;13.55;38.69
36192;BME280;22233;42.708;23.360;2023-04-12T10:04:07;94429.38;;;13.82;38.30
36192;BME280;22233;42.708;23.360;2023-04-12T10:06:33;94436.19;;;13.72;36.79
36192;BME280;22233;42.708;23.360;2023-04-12T10:09:02;94412.84;;;13.23;35.58
36192;BME280;22233;42.708;23.360;2023-04-12T10:11:28;94406.19;;;13.21;35.33
36192;BME280;22233;42.708;23.360;2023-04-12T10:13:55;94406.19;;;13.21;35.86
36192;BME280;22233;42.708;23.360;2023-04-12T10:16:21;94406.09;;;13.33;35.45
36192;BME280;22233;42.708;23.360;2023-04-12T10:18:47;94403.03;;;13.34;35.57
36192;BME280;22233;42.708;23.360;2023-04-12T10:21:14;94396.25;;;13.12;34.75
36192;BME280;22233;42.708;23.360;2023-04-12T10:23:43;94411.91;;;13.15;34.80
36192;BME280;22233;42.708;23.360;2023-04-12T10:26:09;94420.88;;;13.16;34.73
36192;BME280;22233;42.708;23.360;2023-04-12T10:28:35;94404.09;;;12.66;35.40
36192;BME280;22233;42.708;23.360;2023-04-12T10:31:27;94411.47;;;12.50;35.36
36192;BME280;22233;42.708;23.360;2023-04-12T10:34:00;94392.13;;;12.71;34.38
36192;BME280;22233;42.708;23.360;2023-04-12T10:36:56;94419.03;;;13.04;34.16
36192;BME280;22233;42.708;23.360;2023-04-12T10:39:40;94416.03;;;12.77;35.45
36192;BME280;22233;42.708;23.360;2023-04-12T10:45:33;94398.53;;;13.42;34.01
36192;BME280;22233;42.708;23.360;2023-04-12T10:50:20;94394.69;;;13.63;32.71
36192;BME280;22233;42.708;23.360;2023-04-12T10:53:24;94385.66;;;13.97;33.42
36192;BME280;22233;42.708;23.360;2023-04-12T10:55:49;94382.56;;;14.18;32.28
36192;BME280;22233;42.708;23.360;2023-04-12T11:01:12;94377.13;;;14.42;32.04
36192;BME280;22233;42.708;23.360;2023-04-12T11:04:30;94363.59;;;14.49;30.91
36192;BME280;22233;42.708;23.360;2023-04-12T11:12:12;94353.72;;;14.64;31.02
36192;BME280;22233;42.708;23.360;2023-04-12T11:14:41;94396.97;;;14.38;31.05
36192;BME280;22233;42.708;23.360;2023-04-12T11:19:40;94369.78;;;14.65;31.04
36192;BME280;22233;42.708;23.360;2023-04-12T11:22:08;94382.50;;;14.15;31.57
36192;BME280;22233;42.708;23.360;2023-04-12T11:24:52;94365.78;;;14.20;31.39
36192;BME280;22233;42.708;23.360;2023-04-12T11:27:22;94375.09;;;14.38;31.51
36192;BME280;22233;42.708;23.360;2023-04-12T11:29:52;94350.47;;;14.35;31.02
36192;BME280;22233;42.708;23.360;2023-04-12T11:32:21;94365.75;;;14.82;30.98
36192;BME280;22233;42.708;23.360;2023-04-12T11:34:47;94357.78;;;14.96;31.34
36192;BME280;22233;42.708;23.360;2023-04-12T11:37:13;94340.50;;;14.66;30.55
36192;BME280;22233;42.708;23.360;2023-04-12T11:39:42;94371.09;;;14.98;30.49
36192;BME280;22233;42.708;23.360;2023-04-12T11:42:16;94370.81;;;14.57;30.73
36192;BME280;22233;42.708;23.360;2023-04-12T11:44:46;94409.19;;;14.87;30.82
36192;BME280;22233;42.708;23.360;2023-04-12T11:47:16;94351.50;;;14.50;31.33
36192;BME280;22233;42.708;23.360;2023-04-12T11:49:44;94377.66;;;14.70;30.80
36192;BME280;22233;42.708;23.360;2023-04-12T11:52:09;94362.94;;;14.78;30.47
36192;BME280;22233;42.708;23.360;2023-04-12T11:54:36;94396.00;;;15.16;30.27
36192;BME280;22233;42.708;23.360;2023-04-12T11:57:01;94349.44;;;15.12;30.18
36192;BME280;22233;42.708;23.360;2023-04-12T11:59:31;94367.22;;;14.99;30.40
36192;BME280;22233;42.708;23.360;2023-04-12T12:01:58;94364.13;;;15.27;30.38
36192;BME280;22233;42.708;23.360;2023-04-12T12:04:25;94381.53;;;15.15;30.18
36192;BME280;22233;42.708;23.360;2023-04-12T12:06:51;94350.31;;;14.93;31.08
36192;BME280;22233;42.708;23.360;2023-04-12T12:09:17;94357.41;;;14.98;30.97
36192;BME280;22233;42.708;23.360;2023-04-12T12:11:43;94345.47;;;14.83;31.26
36192;BME280;22233;42.708;23.360;2023-04-12T12:14:08;94363.31;;;15.00;31.64
36192;BME280;22233;42.708;23.360;2023-04-12T12:16:34;94359.22;;;15.40;30.99
36192;BME280;22233;42.708;23.360;2023-04-12T12:19:02;94385.47;;;15.45;30.49
36192;BME280;22233;42.708;23.360;2023-04-12T12:21:29;94376.59;;;15.51;29.95
36192;BME280;22233;42.708;23.360;2023-04-12T12:23:56;94396.16;;;15.27;30.34
36192;BME280;22233;42.708;23.360;2023-04-12T12:26:26;94369.47;;;15.20;30.87
36192;BME280;22233;42.708;23.360;2023-04-12T12:28:56;94372.50;;;15.68;29.81
36192;BME280;22233;42.708;23.360;2023-04-12T12:31:24;94387.84;;;15.20;30.73
36192;BME280;22233;42.708;23.360;2023-04-12T12:33:54;94363.06;;;15.35;30.67
36192;BME280;22233;42.708;23.360;2023-04-12T12:36:31;94367.28;;;15.29;30.49
36192;BME280;22233;42.708;23.360;2023-04-12T12:39:02;94351.91;;;15.21;30.15
36192;BME280;22233;42.708;23.360;2023-04-12T12:41:31;94396.31;;;15.37;30.93
36192;BME280;22233;42.708;23.360;2023-04-12T12:43:56;94363.16;;;15.43;30.48
36192;BME280;22233;42.708;23.360;2023-04-12T12:46:21;94360.94;;;15.52;30.32
36192;BME280;22233;42.708;23.360;2023-04-12T12:48:47;94355.06;;;15.50;30.73
36192;BME280;22233;42.708;23.360;2023-04-12T12:51:14;94369.34;;;15.66;29.85
36192;BME280;22233;42.708;23.360;2023-04-12T12:53:45;94380.94;;;15.83;29.74
36192;BME280;22233;42.708;23.360;2023-04-12T12:56:11;94379.41;;;15.58;29.99
36192;BME280;22233;42.708;23.360;2023-04-12T12:58:38;94362.03;;;15.47;29.88
36192;BME280;22233;42.708;23.360;2023-04-12T13:01:04;94385.75;;;15.36;30.23
36192;BME280;22233;42.708;23.360;2023-04-12T13:03:30;94407.06;;;15.23;29.77
36192;BME280;22233;42.708;23.360;2023-04-12T13:05:55;94366.00;;;15.50;29.81
36192;BME280;22233;42.708;23.360;2023-04-12T13:08:22;94389.59;;;15.58;29.95
36192;BME280;22233;42.708;23.360;2023-04-12T13:10:48;94358.75;;;15.34;30.12
36192;BME280;22233;42.708;23.360;2023-04-12T13:13:13;94366.94;;;15.88;29.57
36192;BME280;22233;42.708;23.360;2023-04-12T13:15:39;94384.66;;;15.71;29.93
36192;BME280;22233;42.708;23.360;2023-04-12T13:18:05;94351.84;;;15.44;30.17
36192;BME280;22233;42.708;23.360;2023-04-12T13:20:30;94364.97;;;15.88;30.63
36192;BME280;22233;42.708;23.360;2023-04-12T13:22:56;94367.28;;;16.16;29.68
36192;BME280;22233;42.708;23.360;2023-04-12T13:25:22;94397.44;;;16.20;29.80
36192;BME280;22233;42.708;23.360;2023-04-12T13:27:48;94371.44;;;16.07;30.17
36192;BME280;22233;42.708;23.360;2023-04-12T13:30:13;94406.47;;;15.90;30.47